sensor_id;sensor_type;location;lat;lon;timestamp;P1;durP1;ratioP1;P2;durP2;ratioP2
19149;SDS011;9707;49.158;8.632;2022-09-23T00:01:19;1.90;;;1.27;;
19149;SDS011;9707;49.158;8.632;2022-09-23T00:03:45;2.47;;;1.80;;
19149;SDS011;9707;49.158;8.632;2022-09-23T00:06:14;3.50;;;1.60;;
19149;SDS011;9707;49.158;8.632;2022-09-23T00:08:41;3.78;;;1.80;;
19149;SDS011;9707;49.158;8.632;2022-09-23T00:13:33;4.07;;;1.70;;
19149;SDS011;9707;49.158;8.632;2022-09-23T00:16:03;2.05;;;1.67;;
19149;SDS011;9707;49.158;8.632;2022-09-23T00:18:30;2.70;;;1.75;;
19149;SDS011;9707;49.158;8.632;2022-09-23T00:20:56;3.65;;;2.03;;
19149;SDS011;9707;49.158;8.632;2022-09-23T00:23:21;1.63;;;1.52;;
19149;SDS011;9707;49.158;8.632;2022-09-23T00:25:56;2.08;;;1.60;;
19149;SDS011;9707;49.158;8.632;2022-09-23T00:28:23;2.45;;;1.88;;
19149;SDS011;9707;49.158;8.632;2022-09-23T00:30:49;2.67;;;1.65;;
19149;SDS011;9707;49.158;8.632;2022-09-23T00:33:14;2.58;;;1.75;;
19149;SDS011;9707;49.158;8.632;2022-09-23T00:35:40;2.38;;;1.70;;
19149;SDS011;9707;49.158;8.632;2022-09-23T00:38:05;3.58;;;2.10;;
19149;SDS011;9707;49.158;8.632;2022-09-23T00:40:30;2.13;;;1.80;;
19149;SDS011;9707;49.158;8.632;2022-09-23T00:42:56;3.20;;;1.67;;
19149;SDS011;9707;49.158;8.632;2022-09-23T00:45:22;2.65;;;1.75;;
19149;SDS011;9707;49.158;8.632;2022-09-23T00:47:55;2.95;;;1.52;;
19149;SDS011;9707;49.158;8.632;2022-09-23T00:50:40;3.97;;;1.90;;
19149;SDS011;9707;49.158;8.632;2022-09-23T00:53:12;3.72;;;1.83;;
19149;SDS011;9707;49.158;8.632;2022-09-23T00:55:47;2.28;;;1.80;;
19149;SDS011;9707;49.158;8.632;2022-09-23T00:58:17;2.97;;;2.13;;
19149;SDS011;9707;49.158;8.632;2022-09-23T01:00:45;4.68;;;1.77;;
19149;SDS011;9707;49.158;8.632;2022-09-23T01:09:32;3.80;;;2.25;;
19149;SDS011;9707;49.158;8.632;2022-09-23T01:12:08;2.00;;;1.80;;
19149;SDS011;9707;49.158;8.632;2022-09-23T01:31:42;3.08;;;1.85;;
19149;SDS011;9707;49.158;8.632;2022-09-23T01:34:22;3.08;;;1.85;;
19149;SDS011;9707;49.158;8.632;2022-09-23T01:42:24;6.28;;;1.70;;
19149;SDS011;9707;49.158;8.632;2022-09-23T01:45:02;1.75;;;1.60;;
19149;SDS011;9707;49.158;8.632;2022-09-23T01:47:29;4.50;;;1.83;;
19149;SDS011;9707;49.158;8.632;2022-09-23T01:50:04;2.65;;;1.80;;
19149;SDS011;9707;49.158;8.632;2022-09-23T01:52:53;3.20;;;1.80;;
19149;SDS011;9707;49.158;8.632;2022-09-23T01:55:25;2.47;;;1.77;;
19149;SDS011;9707;49.158;8.632;2022-09-23T02:00:30;2.15;;;1.80;;
19149;SDS011;9707;49.158;8.632;2022-09-23T02:03:03;2.05;;;1.60;;
19149;SDS011;9707;49.158;8.632;2022-09-23T02:05:38;2.03;;;1.80;;
19149;SDS011;9707;49.158;8.632;2022-09-23T02:08:13;3.50;;;1.77;;
19149;SDS011;9707;49.158;8.632;2022-09-23T02:13:33;3.42;;;1.90;;
19149;SDS011;9707;49.158;8.632;2022-09-23T02:16:00;3.03;;;1.67;;
19149;SDS011;9707;49.158;8.632;2022-09-23T02:19:34;4.35;;;1.70;;
19149;SDS011;9707;49.158;8.632;2022-09-23T02:21:45;1.55;;;1.42;;
19149;SDS011;9707;49.158;8.632;2022-09-23T02:24:17;2.63;;;1.48;;
19149;SDS011;9707;49.158;8.632;2022-09-23T02:26:48;2.05;;;1.42;;
19149;SDS011;9707;49.158;8.632;2022-09-23T02:29:18;2.38;;;1.75;;
19149;SDS011;9707;49.158;8.632;2022-09-23T02:40:34;3.03;;;1.50;;
19149;SDS011;9707;49.158;8.632;2022-09-23T02:45:48;2.63;;;1.60;;
19149;SDS011;9707;49.158;8.632;2022-09-23T02:48:17;2.53;;;1.95;;
19149;SDS011;9707;49.158;8.632;2022-09-23T02:50:46;3.58;;;2.08;;
19149;SDS011;9707;49.158;8.632;2022-09-23T02:53:12;2.22;;;1.58;;
19149;SDS011;9707;49.158;8.632;2022-09-23T02:55:40;1.35;;;1.20;;
19149;SDS011;9707;49.158;8.632;2022-09-23T02:58:06;1.70;;;1.40;;
19149;SDS011;9707;49.158;8.632;2022-09-23T03:00:38;3.50;;;1.90;;
19149;SDS011;9707;49.158;8.632;2022-09-23T03:06:29;2.53;;;1.60;;
19149;SDS011;9707;49.158;8.632;2022-09-23T03:09:07;3.05;;;1.40;;
19149;SDS011;9707;49.158;8.632;2022-09-23T03:11:37;2.50;;;1.85;;
19149;SDS011;9707;49.158;8.632;2022-09-23T03:16:45;1.98;;;1.73;;
19149;SDS011;9707;49.158;8.632;2022-09-23T03:19:34;2.45;;;1.75;;
19149;SDS011;9707;49.158;8.632;2022-09-23T03:22:19;2.00;;;1.65;;
19149;SDS011;9707;49.158;8.632;2022-09-23T03:24:49;1.83;;;1.38;;
19149;SDS011;9707;49.158;8.632;2022-09-23T03:27:16;1.98;;;1.55;;
19149;SDS011;9707;49.158;8.632;2022-09-23T03:29:47;3.50;;;1.80;;
19149;SDS011;9707;49.158;8.632;2022-09-23T03:32:16;2.45;;;2.05;;
19149;SDS011;9707;49.158;8.632;2022-09-23T03:34:45;2.42;;;1.42;;
19149;SDS011;9707;49.158;8.632;2022-09-23T03:37:24;3.33;;;1.75;;
19149;SDS011;9707;49.158;8.632;2022-09-23T03:39:58;2.25;;;1.23;;
19149;SDS011;9707;49.158;8.632;2022-09-23T03:42:30;2.05;;;1.30;;
19149;SDS011;9707;49.158;8.632;2022-09-23T03:44:57;2.38;;;1.50;;
19149;SDS011;9707;49.158;8.632;2022-09-23T03:47:26;2.58;;;1.98;;
19149;SDS011;9707;49.158;8.632;2022-09-23T03:49:52;1.95;;;1.75;;
19149;SDS011;9707;49.158;8.632;2022-09-23T03:52:19;8.00;;;5.72;;
19149;SDS011;9707;49.158;8.632;2022-09-23T03:54:46;3.28;;;2.85;;
19149;SDS011;9707;49.158;8.632;2022-09-23T03:57:12;3.40;;;2.83;;
19149;SDS011;9707;49.158;8.632;2022-09-23T03:59:37;3.50;;;2.63;;
19149;SDS011;9707;49.158;8.632;2022-09-23T04:02:03;3.60;;;2.60;;
19149;SDS011;9707;49.158;8.632;2022-09-23T04:04:31;3.08;;;2.60;;
19149;SDS011;9707;49.158;8.632;2022-09-23T04:06:58;3.00;;;2.35;;
19149;SDS011;9707;49.158;8.632;2022-09-23T04:09:23;3.72;;;2.20;;
19149;SDS011;9707;49.158;8.632;2022-09-23T04:11:49;15.57;;;9.88;;
19149;SDS011;9707;49.158;8.632;2022-09-23T04:14:15;4.15;;;3.50;;
19149;SDS011;9707;49.158;8.632;2022-09-23T04:16:42;3.85;;;3.35;;
19149;SDS011;9707;49.158;8.632;2022-09-23T04:19:08;4.78;;;4.25;;
19149;SDS011;9707;49.158;8.632;2022-09-23T04:21:34;6.28;;;4.70;;
19149;SDS011;9707;49.158;8.632;2022-09-23T04:23:59;4.15;;;3.05;;
19149;SDS011;9707;49.158;8.632;2022-09-23T04:26:25;3.33;;;2.58;;
19149;SDS011;9707;49.158;8.632;2022-09-23T04:28:51;4.63;;;2.90;;
19149;SDS011;9707;49.158;8.632;2022-09-23T04:31:18;4.45;;;2.25;;
19149;SDS011;9707;49.158;8.632;2022-09-23T04:33:43;3.08;;;2.42;;
19149;SDS011;9707;49.158;8.632;2022-09-23T04:36:08;5.97;;;3.10;;
19149;SDS011;9707;49.158;8.632;2022-09-23T04:38:34;3.63;;;3.28;;
19149;SDS011;9707;49.158;8.632;2022-09-23T04:40:59;4.55;;;3.30;;
19149;SDS011;9707;49.158;8.632;2022-09-23T04:43:25;4.28;;;3.28;;
19149;SDS011;9707;49.158;8.632;2022-09-23T04:46:00;3.72;;;3.00;;
19149;SDS011;9707;49.158;8.632;2022-09-23T04:48:27;4.40;;;2.90;;
19149;SDS011;9707;49.158;8.632;2022-09-23T04:50:53;3.50;;;2.67;;
19149;SDS011;9707;49.158;8.632;2022-09-23T04:53:19;4.80;;;3.58;;
19149;SDS011;9707;49.158;8.632;2022-09-23T04:55:45;6.78;;;4.50;;
19149;SDS011;9707;49.158;8.632;2022-09-23T04:58:11;4.80;;;3.58;;
19149;SDS011;9707;49.158;8.632;2022-09-23T05:00:36;4.38;;;3.70;;
19149;SDS011;9707;49.158;8.632;2022-09-23T05:03:02;3.85;;;3.10;;
19149;SDS011;9707;49.158;8.632;2022-09-23T05:05:28;5.40;;;3.10;;
19149;SDS011;9707;49.158;8.632;2022-09-23T05:07:54;4.85;;;3.20;;
19149;SDS011;9707;49.158;8.632;2022-09-23T05:10:20;5.13;;;3.58;;
19149;SDS011;9707;49.158;8.632;2022-09-23T05:12:46;4.22;;;2.78;;
19149;SDS011;9707;49.158;8.632;2022-09-23T05:15:12;3.83;;;2.97;;
19149;SDS011;9707;49.158;8.632;2022-09-23T05:17:39;3.42;;;2.63;;
19149;SDS011;9707;49.158;8.632;2022-09-23T05:20:04;4.55;;;2.88;;
19149;SDS011;9707;49.158;8.632;2022-09-23T05:22:30;4.43;;;2.55;;
19149;SDS011;9707;49.158;8.632;2022-09-23T05:24:56;5.43;;;3.03;;
19149;SDS011;9707;49.158;8.632;2022-09-23T05:27:23;3.30;;;2.65;;
19149;SDS011;9707;49.158;8.632;2022-09-23T05:29:49;4.75;;;2.85;;
19149;SDS011;9707;49.158;8.632;2022-09-23T05:32:16;3.45;;;2.95;;
19149;SDS011;9707;49.158;8.632;2022-09-23T05:34:41;3.88;;;2.40;;
19149;SDS011;9707;49.158;8.632;2022-09-23T05:37:07;4.47;;;2.75;;
19149;SDS011;9707;49.158;8.632;2022-09-23T05:39:32;4.00;;;3.03;;
19149;SDS011;9707;49.158;8.632;2022-09-23T05:41:58;4.07;;;2.90;;
19149;SDS011;9707;49.158;8.632;2022-09-23T05:44:24;4.05;;;2.97;;
19149;SDS011;9707;49.158;8.632;2022-09-23T05:46:49;4.75;;;2.47;;
19149;SDS011;9707;49.158;8.632;2022-09-23T05:49:15;4.13;;;3.08;;
19149;SDS011;9707;49.158;8.632;2022-09-23T05:51:40;3.10;;;2.67;;
19149;SDS011;9707;49.158;8.632;2022-09-23T05:54:05;4.55;;;3.38;;
19149;SDS011;9707;49.158;8.632;2022-09-23T05:56:32;3.72;;;3.00;;
19149;SDS011;9707;49.158;8.632;2022-09-23T05:58:58;4.53;;;3.10;;
19149;SDS011;9707;49.158;8.632;2022-09-23T06:01:25;4.22;;;2.88;;
19149;SDS011;9707;49.158;8.632;2022-09-23T06:03:55;3.25;;;2.95;;
19149;SDS011;9707;49.158;8.632;2022-09-23T06:06:31;3.97;;;2.70;;
19149;SDS011;9707;49.158;8.632;2022-09-23T06:08:56;4.72;;;3.17;;
19149;SDS011;9707;49.158;8.632;2022-09-23T06:11:23;3.10;;;2.80;;
19149;SDS011;9707;49.158;8.632;2022-09-23T06:13:52;3.13;;;2.70;;
19149;SDS011;9707;49.158;8.632;2022-09-23T06:16:19;6.97;;;3.00;;
19149;SDS011;9707;49.158;8.632;2022-09-23T06:18:44;4.18;;;2.65;;
19149;SDS011;9707;49.158;8.632;2022-09-23T06:21:13;5.65;;;3.08;;
19149;SDS011;9707;49.158;8.632;2022-09-23T06:23:40;3.20;;;2.78;;
19149;SDS011;9707;49.158;8.632;2022-09-23T06:26:07;5.93;;;3.17;;
19149;SDS011;9707;49.158;8.632;2022-09-23T06:28:34;4.40;;;2.78;;
19149;SDS011;9707;49.158;8.632;2022-09-23T06:31:02;5.57;;;3.17;;
19149;SDS011;9707;49.158;8.632;2022-09-23T06:33:34;3.85;;;2.78;;
19149;SDS011;9707;49.158;8.632;2022-09-23T06:36:01;5.32;;;3.00;;
19149;SDS011;9707;49.158;8.632;2022-09-23T06:38:28;4.10;;;2.50;;
19149;SDS011;9707;49.158;8.632;2022-09-23T06:40:54;5.47;;;3.13;;
19149;SDS011;9707;49.158;8.632;2022-09-23T06:43:21;5.10;;;2.80;;
19149;SDS011;9707;49.158;8.632;2022-09-23T06:45:52;4.68;;;2.35;;
19149;SDS011;9707;49.158;8.632;2022-09-23T06:48:18;3.85;;;2.67;;
19149;SDS011;9707;49.158;8.632;2022-09-23T06:50:44;3.63;;;2.90;;
19149;SDS011;9707;49.158;8.632;2022-09-23T06:53:09;4.65;;;2.88;;
19149;SDS011;9707;49.158;8.632;2022-09-23T06:55:34;4.13;;;2.50;;
19149;SDS011;9707;49.158;8.632;2022-09-23T06:58:00;5.72;;;3.85;;
19149;SDS011;9707;49.158;8.632;2022-09-23T07:00:25;4.20;;;2.92;;
19149;SDS011;9707;49.158;8.632;2022-09-23T07:02:51;3.33;;;2.63;;
19149;SDS011;9707;49.158;8.632;2022-09-23T07:05:16;3.30;;;2.67;;
19149;SDS011;9707;49.158;8.632;2022-09-23T07:07:42;4.78;;;2.88;;
19149;SDS011;9707;49.158;8.632;2022-09-23T07:10:08;4.75;;;3.03;;
19149;SDS011;9707;49.158;8.632;2022-09-23T07:12:35;4.13;;;2.90;;
19149;SDS011;9707;49.158;8.632;2022-09-23T07:15:00;3.97;;;3.10;;
19149;SDS011;9707;49.158;8.632;2022-09-23T07:17:25;3.85;;;3.03;;
19149;SDS011;9707;49.158;8.632;2022-09-23T07:19:51;3.67;;;3.15;;
19149;SDS011;9707;49.158;8.632;2022-09-23T07:22:18;7.18;;;3.63;;
19149;SDS011;9707;49.158;8.632;2022-09-23T07:24:48;3.67;;;3.22;;
19149;SDS011;9707;49.158;8.632;2022-09-23T07:27:13;5.68;;;3.15;;
19149;SDS011;9707;49.158;8.632;2022-09-23T07:29:41;5.35;;;3.05;;
19149;SDS011;9707;49.158;8.632;2022-09-23T07:32:07;3.92;;;3.00;;
19149;SDS011;9707;49.158;8.632;2022-09-23T07:34:32;4.95;;;3.00;;
19149;SDS011;9707;49.158;8.632;2022-09-23T07:36:58;4.97;;;3.17;;
19149;SDS011;9707;49.158;8.632;2022-09-23T07:39:23;3.78;;;3.17;;
19149;SDS011;9707;49.158;8.632;2022-09-23T07:41:48;4.63;;;3.30;;
19149;SDS011;9707;49.158;8.632;2022-09-23T07:44:16;3.33;;;2.92;;
19149;SDS011;9707;49.158;8.632;2022-09-23T07:46:44;4.13;;;3.03;;
19149;SDS011;9707;49.158;8.632;2022-09-23T07:49:09;4.50;;;3.38;;
19149;SDS011;9707;49.158;8.632;2022-09-23T07:51:36;5.97;;;3.22;;
19149;SDS011;9707;49.158;8.632;2022-09-23T07:54:04;3.45;;;3.10;;
19149;SDS011;9707;49.158;8.632;2022-09-23T07:56:31;4.85;;;2.90;;
19149;SDS011;9707;49.158;8.632;2022-09-23T07:58:57;4.63;;;2.30;;
19149;SDS011;9707;49.158;8.632;2022-09-23T08:01:31;3.17;;;2.60;;
19149;SDS011;9707;49.158;8.632;2022-09-23T08:03:59;4.32;;;3.00;;
19149;SDS011;9707;49.158;8.632;2022-09-23T08:06:27;3.92;;;3.20;;
19149;SDS011;9707;49.158;8.632;2022-09-23T08:08:52;7.20;;;4.47;;
19149;SDS011;9707;49.158;8.632;2022-09-23T08:11:18;6.80;;;2.97;;
19149;SDS011;9707;49.158;8.632;2022-09-23T08:13:43;3.42;;;2.53;;
19149;SDS011;9707;49.158;8.632;2022-09-23T08:16:08;3.00;;;2.65;;
19149;SDS011;9707;49.158;8.632;2022-09-23T08:18:34;3.83;;;2.85;;
19149;SDS011;9707;49.158;8.632;2022-09-23T08:21:00;4.90;;;2.50;;
19149;SDS011;9707;49.158;8.632;2022-09-23T08:23:25;3.08;;;2.55;;
19149;SDS011;9707;49.158;8.632;2022-09-23T08:25:58;4.53;;;2.92;;
19149;SDS011;9707;49.158;8.632;2022-09-23T08:28:29;4.45;;;2.60;;
19149;SDS011;9707;49.158;8.632;2022-09-23T08:30:57;3.47;;;2.53;;
19149;SDS011;9707;49.158;8.632;2022-09-23T08:33:23;3.28;;;2.78;;
19149;SDS011;9707;49.158;8.632;2022-09-23T08:35:49;4.55;;;2.78;;
19149;SDS011;9707;49.158;8.632;2022-09-23T08:38:15;5.32;;;2.70;;
19149;SDS011;9707;49.158;8.632;2022-09-23T08:40:41;4.38;;;2.88;;
19149;SDS011;9707;49.158;8.632;2022-09-23T08:43:19;3.20;;;2.70;;
19149;SDS011;9707;49.158;8.632;2022-09-23T08:45:50;3.30;;;2.20;;
19149;SDS011;9707;49.158;8.632;2022-09-23T08:48:28;4.03;;;2.90;;
19149;SDS011;9707;49.158;8.632;2022-09-23T08:51:07;3.83;;;3.25;;
19149;SDS011;9707;49.158;8.632;2022-09-23T08:53:38;3.55;;;2.80;;
19149;SDS011;9707;49.158;8.632;2022-09-23T08:56:05;4.22;;;2.47;;
19149;SDS011;9707;49.158;8.632;2022-09-23T09:03:39;3.90;;;2.72;;
19149;SDS011;9707;49.158;8.632;2022-09-23T09:06:18;3.15;;;2.55;;
19149;SDS011;9707;49.158;8.632;2022-09-23T09:08:51;4.50;;;2.40;;
19149;SDS011;9707;49.158;8.632;2022-09-23T09:11:20;3.60;;;2.38;;
19149;SDS011;9707;49.158;8.632;2022-09-23T09:13:54;3.38;;;2.40;;
19149;SDS011;9707;49.158;8.632;2022-09-23T09:19:27;4.35;;;2.63;;
19149;SDS011;9707;49.158;8.632;2022-09-23T09:21:57;3.85;;;2.65;;
19149;SDS011;9707;49.158;8.632;2022-09-23T09:24:28;7.18;;;2.80;;
19149;SDS011;9707;49.158;8.632;2022-09-23T09:26:59;3.65;;;2.75;;
19149;SDS011;9707;49.158;8.632;2022-09-23T09:29:32;5.53;;;3.22;;
19149;SDS011;9707;49.158;8.632;2022-09-23T09:35:35;7.18;;;2.60;;
19149;SDS011;9707;49.158;8.632;2022-09-23T09:38:05;8.68;;;3.17;;
19149;SDS011;9707;49.158;8.632;2022-09-23T09:40:31;10.15;;;2.88;;
19149;SDS011;9707;49.158;8.632;2022-09-23T09:42:58;3.45;;;2.63;;
19149;SDS011;9707;49.158;8.632;2022-09-23T09:45:32;3.92;;;2.40;;
19149;SDS011;9707;49.158;8.632;2022-09-23T09:48:46;3.15;;;2.60;;
19149;SDS011;9707;49.158;8.632;2022-09-23T09:51:16;3.35;;;2.40;;
19149;SDS011;9707;49.158;8.632;2022-09-23T09:53:42;3.60;;;2.42;;
19149;SDS011;9707;49.158;8.632;2022-09-23T09:56:08;4.97;;;2.60;;
19149;SDS011;9707;49.158;8.632;2022-09-23T10:01:17;3.65;;;2.30;;
19149;SDS011;9707;49.158;8.632;2022-09-23T10:03:48;3.70;;;2.40;;
19149;SDS011;9707;49.158;8.632;2022-09-23T10:06:19;7.22;;;2.28;;
19149;SDS011;9707;49.158;8.632;2022-09-23T10:11:26;3.05;;;1.95;;
19149;SDS011;9707;49.158;8.632;2022-09-23T10:16:24;2.33;;;2.08;;
19149;SDS011;9707;49.158;8.632;2022-09-23T10:18:49;4.90;;;2.20;;
19149;SDS011;9707;49.158;8.632;2022-09-23T10:21:20;5.15;;;2.17;;
19149;SDS011;9707;49.158;8.632;2022-09-23T10:23:49;4.40;;;2.03;;
19149;SDS011;9707;49.158;8.632;2022-09-23T10:26:17;2.80;;;2.40;;
19149;SDS011;9707;49.158;8.632;2022-09-23T10:28:56;4.20;;;1.90;;
19149;SDS011;9707;49.158;8.632;2022-09-23T10:31:25;4.30;;;2.22;;
19149;SDS011;9707;49.158;8.632;2022-09-23T10:34:02;3.67;;;2.20;;
19149;SDS011;9707;49.158;8.632;2022-09-23T10:36:44;3.92;;;2.00;;
19149;SDS011;9707;49.158;8.632;2022-09-23T10:39:31;5.60;;;2.10;;
19149;SDS011;9707;49.158;8.632;2022-09-23T10:42:25;5.20;;;2.85;;
19149;SDS011;9707;49.158;8.632;2022-09-23T10:45:23;3.15;;;1.85;;
19149;SDS011;9707;49.158;8.632;2022-09-23T10:50:48;2.72;;;1.65;;
19149;SDS011;9707;49.158;8.632;2022-09-23T11:10:18;3.97;;;2.15;;
19149;SDS011;9707;49.158;8.632;2022-09-23T11:18:27;4.90;;;2.00;;
19149;SDS011;9707;49.158;8.632;2022-09-23T11:21:09;4.47;;;2.08;;
19149;SDS011;9707;49.158;8.632;2022-09-23T11:36:51;6.20;;;2.20;;
19149;SDS011;9707;49.158;8.632;2022-09-23T11:39:27;8.30;;;2.00;;
19149;SDS011;9707;49.158;8.632;2022-09-23T11:41:57;4.68;;;2.10;;
19149;SDS011;9707;49.158;8.632;2022-09-23T11:44:27;5.53;;;2.30;;
19149;SDS011;9707;49.158;8.632;2022-09-23T11:47:05;2.90;;;2.03;;
19149;SDS011;9707;49.158;8.632;2022-09-23T11:55:00;3.10;;;2.38;;
19149;SDS011;9707;49.158;8.632;2022-09-23T11:57:55;2.40;;;2.20;;
19149;SDS011;9707;49.158;8.632;2022-09-23T12:00:22;3.38;;;2.60;;
19149;SDS011;9707;49.158;8.632;2022-09-23T12:02:57;3.33;;;2.38;;
19149;SDS011;9707;49.158;8.632;2022-09-23T12:05:46;3.70;;;2.22;;
19149;SDS011;9707;49.158;8.632;2022-09-23T12:10:53;3.03;;;2.38;;
19149;SDS011;9707;49.158;8.632;2022-09-23T12:13:25;4.25;;;2.03;;
19149;SDS011;9707;49.158;8.632;2022-09-23T12:21:06;4.50;;;2.58;;
19149;SDS011;9707;49.158;8.632;2022-09-23T12:26:18;2.95;;;2.08;;
19149;SDS011;9707;49.158;8.632;2022-09-23T12:28:48;3.45;;;2.50;;
19149;SDS011;9707;49.158;8.632;2022-09-23T12:31:17;5.60;;;2.05;;
19149;SDS011;9707;49.158;8.632;2022-09-23T12:33:52;2.40;;;1.90;;
19149;SDS011;9707;49.158;8.632;2022-09-23T12:36:33;3.38;;;2.08;;
19149;SDS011;9707;49.158;8.632;2022-09-23T12:39:16;6.03;;;2.22;;
19149;SDS011;9707;49.158;8.632;2022-09-23T12:41:52;2.83;;;1.65;;
19149;SDS011;9707;49.158;8.632;2022-09-23T12:44:38;2.75;;;1.60;;
19149;SDS011;9707;49.158;8.632;2022-09-23T12:49:38;3.80;;;1.58;;
19149;SDS011;9707;49.158;8.632;2022-09-23T12:54:36;3.15;;;1.50;;
19149;SDS011;9707;49.158;8.632;2022-09-23T12:57:04;3.70;;;1.38;;
19149;SDS011;9707;49.158;8.632;2022-09-23T13:04:58;2.85;;;1.55;;
19149;SDS011;9707;49.158;8.632;2022-09-23T13:07:48;3.42;;;1.60;;
19149;SDS011;9707;49.158;8.632;2022-09-23T13:11:00;5.35;;;2.13;;
19149;SDS011;9707;49.158;8.632;2022-09-23T13:13:19;2.05;;;1.23;;
19149;SDS011;9707;49.158;8.632;2022-09-23T13:16:08;3.03;;;1.67;;
19149;SDS011;9707;49.158;8.632;2022-09-23T13:21:18;4.53;;;1.77;;
19149;SDS011;9707;49.158;8.632;2022-09-23T13:32:28;3.70;;;2.00;;
19149;SDS011;9707;49.158;8.632;2022-09-23T13:35:01;1.45;;;1.20;;
19149;SDS011;9707;49.158;8.632;2022-09-23T13:37:50;2.58;;;1.48;;
19149;SDS011;9707;49.158;8.632;2022-09-23T13:40:17;3.03;;;1.40;;
19149;SDS011;9707;49.158;8.632;2022-09-23T13:42:43;1.58;;;1.20;;
19149;SDS011;9707;49.158;8.632;2022-09-23T13:45:18;2.83;;;1.70;;
19149;SDS011;9707;49.158;8.632;2022-09-23T13:47:45;2.58;;;1.75;;
19149;SDS011;9707;49.158;8.632;2022-09-23T13:50:18;2.05;;;1.35;;
19149;SDS011;9707;49.158;8.632;2022-09-23T13:52:54;2.60;;;1.42;;
19149;SDS011;9707;49.158;8.632;2022-09-23T13:55:27;2.85;;;1.30;;
19149;SDS011;9707;49.158;8.632;2022-09-23T14:00:45;3.33;;;1.90;;
19149;SDS011;9707;49.158;8.632;2022-09-23T14:03:29;2.58;;;1.58;;
19149;SDS011;9707;49.158;8.632;2022-09-23T14:05:58;4.75;;;1.45;;
19149;SDS011;9707;49.158;8.632;2022-09-23T14:08:25;2.58;;;1.60;;
19149;SDS011;9707;49.158;8.632;2022-09-23T14:10:53;2.83;;;1.73;;
19149;SDS011;9707;49.158;8.632;2022-09-23T14:13:26;2.45;;;1.50;;
19149;SDS011;9707;49.158;8.632;2022-09-23T14:15:57;5.47;;;1.83;;
19149;SDS011;9707;49.158;8.632;2022-09-23T14:20:57;2.55;;;1.65;;
19149;SDS011;9707;49.158;8.632;2022-09-23T14:23:22;3.95;;;1.60;;
19149;SDS011;9707;49.158;8.632;2022-09-23T14:25:47;2.78;;;1.70;;
19149;SDS011;9707;49.158;8.632;2022-09-23T14:28:15;5.95;;;2.72;;
19149;SDS011;9707;49.158;8.632;2022-09-23T14:30:43;3.90;;;1.67;;
19149;SDS011;9707;49.158;8.632;2022-09-23T14:33:13;5.68;;;2.25;;
19149;SDS011;9707;49.158;8.632;2022-09-23T14:35:41;4.85;;;1.63;;
19149;SDS011;9707;49.158;8.632;2022-09-23T14:38:10;3.25;;;1.65;;
19149;SDS011;9707;49.158;8.632;2022-09-23T14:40:57;3.53;;;1.50;;
19149;SDS011;9707;49.158;8.632;2022-09-23T14:43:49;2.72;;;1.90;;
19149;SDS011;9707;49.158;8.632;2022-09-23T14:46:16;2.97;;;1.90;;
19149;SDS011;9707;49.158;8.632;2022-09-23T14:49:07;5.78;;;1.90;;
19149;SDS011;9707;49.158;8.632;2022-09-23T14:54:22;2.30;;;2.03;;
19149;SDS011;9707;49.158;8.632;2022-09-23T14:56:50;3.30;;;2.00;;
19149;SDS011;9707;49.158;8.632;2022-09-23T15:01:59;2.65;;;1.83;;
19149;SDS011;9707;49.158;8.632;2022-09-23T15:06:55;4.13;;;2.15;;
19149;SDS011;9707;49.158;8.632;2022-09-23T15:09:27;2.45;;;1.60;;
19149;SDS011;9707;49.158;8.632;2022-09-23T15:12:12;5.63;;;1.80;;
19149;SDS011;9707;49.158;8.632;2022-09-23T15:14:39;2.65;;;1.60;;
19149;SDS011;9707;49.158;8.632;2022-09-23T15:20:04;5.05;;;2.00;;
19149;SDS011;9707;49.158;8.632;2022-09-23T15:22:40;3.42;;;1.75;;
19149;SDS011;9707;49.158;8.632;2022-09-23T15:25:18;3.55;;;1.92;;
19149;SDS011;9707;49.158;8.632;2022-09-23T15:28:02;4.90;;;2.05;;
19149;SDS011;9707;49.158;8.632;2022-09-23T15:30:48;2.10;;;1.73;;
19149;SDS011;9707;49.158;8.632;2022-09-23T15:33:14;4.18;;;1.73;;
19149;SDS011;9707;49.158;8.632;2022-09-23T15:35:49;2.05;;;1.60;;
19149;SDS011;9707;49.158;8.632;2022-09-23T15:38:15;2.58;;;1.65;;
19149;SDS011;9707;49.158;8.632;2022-09-23T15:40:41;5.13;;;1.70;;
19149;SDS011;9707;49.158;8.632;2022-09-23T15:43:14;4.85;;;1.88;;
19149;SDS011;9707;49.158;8.632;2022-09-23T15:45:48;3.53;;;1.70;;
19149;SDS011;9707;49.158;8.632;2022-09-23T15:48:16;7.38;;;2.60;;
19149;SDS011;9707;49.158;8.632;2022-09-23T15:50:46;5.97;;;3.65;;
19149;SDS011;9707;49.158;8.632;2022-09-23T15:53:16;8.52;;;4.63;;
19149;SDS011;9707;49.158;8.632;2022-09-23T15:55:47;6.75;;;3.78;;
19149;SDS011;9707;49.158;8.632;2022-09-23T15:58:15;5.35;;;2.85;;
19149;SDS011;9707;49.158;8.632;2022-09-23T16:00:41;3.75;;;2.28;;
19149;SDS011;9707;49.158;8.632;2022-09-23T16:03:07;2.88;;;2.03;;
19149;SDS011;9707;49.158;8.632;2022-09-23T16:05:38;5.43;;;2.17;;
19149;SDS011;9707;49.158;8.632;2022-09-23T16:08:08;6.05;;;2.72;;
19149;SDS011;9707;49.158;8.632;2022-09-23T16:10:34;4.07;;;2.08;;
19149;SDS011;9707;49.158;8.632;2022-09-23T16:13:00;5.78;;;2.33;;
19149;SDS011;9707;49.158;8.632;2022-09-23T16:15:28;2.70;;;1.92;;
19149;SDS011;9707;49.158;8.632;2022-09-23T16:17:55;4.30;;;2.17;;
19149;SDS011;9707;49.158;8.632;2022-09-23T16:20:20;3.42;;;2.40;;
19149;SDS011;9707;49.158;8.632;2022-09-23T16:22:48;4.53;;;2.28;;
19149;SDS011;9707;49.158;8.632;2022-09-23T16:25:57;7.13;;;2.58;;
19149;SDS011;9707;49.158;8.632;2022-09-23T16:28:39;4.50;;;2.35;;
19149;SDS011;9707;49.158;8.632;2022-09-23T16:31:04;4.63;;;2.75;;
19149;SDS011;9707;49.158;8.632;2022-09-23T16:33:30;4.68;;;2.55;;
19149;SDS011;9707;49.158;8.632;2022-09-23T16:35:55;4.00;;;2.25;;
19149;SDS011;9707;49.158;8.632;2022-09-23T16:38:24;6.38;;;3.13;;
19149;SDS011;9707;49.158;8.632;2022-09-23T16:40:50;6.32;;;4.18;;
19149;SDS011;9707;49.158;8.632;2022-09-23T16:43:15;16.67;;;8.45;;
19149;SDS011;9707;49.158;8.632;2022-09-23T16:45:41;12.15;;;5.68;;
19149;SDS011;9707;49.158;8.632;2022-09-23T16:48:07;6.70;;;3.70;;
19149;SDS011;9707;49.158;8.632;2022-09-23T16:50:35;5.45;;;2.90;;
19149;SDS011;9707;49.158;8.632;2022-09-23T16:53:00;5.07;;;3.00;;
19149;SDS011;9707;49.158;8.632;2022-09-23T16:55:25;3.95;;;2.30;;
19149;SDS011;9707;49.158;8.632;2022-09-23T16:57:51;6.55;;;2.70;;
19149;SDS011;9707;49.158;8.632;2022-09-23T17:00:18;7.60;;;2.58;;
19149;SDS011;9707;49.158;8.632;2022-09-23T17:03:02;4.55;;;2.85;;
19149;SDS011;9707;49.158;8.632;2022-09-23T17:05:47;5.03;;;3.70;;
19149;SDS011;9707;49.158;8.632;2022-09-23T17:08:14;8.05;;;5.40;;
19149;SDS011;9707;49.158;8.632;2022-09-23T17:10:41;8.98;;;6.03;;
19149;SDS011;9707;49.158;8.632;2022-09-23T17:13:18;6.85;;;4.43;;
19149;SDS011;9707;49.158;8.632;2022-09-23T17:15:44;5.53;;;3.50;;
19149;SDS011;9707;49.158;8.632;2022-09-23T17:18:09;6.05;;;3.63;;
19149;SDS011;9707;49.158;8.632;2022-09-23T17:20:35;4.28;;;3.00;;
19149;SDS011;9707;49.158;8.632;2022-09-23T17:23:01;4.88;;;2.90;;
19149;SDS011;9707;49.158;8.632;2022-09-23T17:25:29;3.85;;;2.70;;
19149;SDS011;9707;49.158;8.632;2022-09-23T17:27:54;6.45;;;2.58;;
19149;SDS011;9707;49.158;8.632;2022-09-23T17:30:19;3.78;;;2.60;;
19149;SDS011;9707;49.158;8.632;2022-09-23T17:32:45;3.15;;;2.33;;
19149;SDS011;9707;49.158;8.632;2022-09-23T17:35:11;4.88;;;2.10;;
19149;SDS011;9707;49.158;8.632;2022-09-23T17:37:36;8.40;;;2.70;;
19149;SDS011;9707;49.158;8.632;2022-09-23T17:40:02;10.02;;;5.53;;
19149;SDS011;9707;49.158;8.632;2022-09-23T17:42:28;4.60;;;2.97;;
19149;SDS011;9707;49.158;8.632;2022-09-23T17:44:53;6.40;;;2.58;;
19149;SDS011;9707;49.158;8.632;2022-09-23T17:47:23;4.47;;;2.35;;
19149;SDS011;9707;49.158;8.632;2022-09-23T17:49:49;4.10;;;2.20;;
19149;SDS011;9707;49.158;8.632;2022-09-23T17:52:16;3.13;;;2.10;;
19149;SDS011;9707;49.158;8.632;2022-09-23T17:54:41;4.68;;;2.35;;
19149;SDS011;9707;49.158;8.632;2022-09-23T17:57:07;3.72;;;2.53;;
19149;SDS011;9707;49.158;8.632;2022-09-23T17:59:32;5.65;;;2.65;;
19149;SDS011;9707;49.158;8.632;2022-09-23T18:01:58;3.53;;;2.30;;
19149;SDS011;9707;49.158;8.632;2022-09-23T18:04:23;7.22;;;3.20;;